Time;durP1;ratioP1;P1;durP2;ratioP2;P2;SDS_P1;SDS_P2;PMS_P1;PMS_P2;Temp;Humidity;BMP_temperature;BMP_pressure;BME280_temperature;BME280_humidity;BME280_pressure;Samples;Min_cycle;Max_cycle;Signal;HPM_P1;HPM_P2
2021/07/31 00:01:25;;;;;;;15.97;12.10;;;16.60;99.90;;;;;;5043317;28;20194;-80
2021/07/31 00:03:55;;;;;;;14.90;11.67;;;16.60;99.90;;;;;;5051558;28;20198;-83
2021/07/31 00:06:32;;;;;;;14.60;11.30;;;16.60;99.90;;;;;;5049649;28;20231;-82
2021/07/31 00:09:01;;;;;;;14.33;11.67;;;16.50;99.90;;;;;;5053497;28;20205;-81
2021/07/31 00:11:31;;;;;;;15.33;11.77;;;16.50;99.90;;;;;;5049332;28;20260;-82
2021/07/31 00:14:00;;;;;;;15.60;11.70;;;16.50;99.90;;;;;;5042535;28;20222;-84
2021/07/31 00:16:29;;;;;;;15.73;12.57;;;16.50;99.90;;;;;;5042883;28;20236;-83
2021/07/31 00:18:57;;;;;;;16.97;13.17;;;16.50;99.90;;;;;;5041694;28;20676;-82
2021/07/31 00:21:26;;;;;;;16.37;12.60;;;16.50;99.90;;;;;;5055104;28;20202;-80
2021/07/31 00:23:55;;;;;;;16.63;12.70;;;16.40;99.90;;;;;;5054089;28;20572;-80
2021/07/31 00:26:23;;;;;;;14.37;12.80;;;16.40;99.90;;;;;;5041681;28;20204;-84
2021/07/31 00:28:53;;;;;;;16.37;13.27;;;16.40;99.90;;;;;;5037870;28;20527;-85
2021/07/31 00:31:22;;;;;;;15.63;12.67;;;16.30;99.90;;;;;;5039482;28;20210;-81
2021/07/31 00:33:51;;;;;;;15.77;12.70;;;16.30;99.90;;;;;;5040718;28;20217;-83
2021/07/31 00:36:19;;;;;;;17.17;13.60;;;16.30;99.90;;;;;;5045296;28;20210;-85
2021/07/31 00:38:48;;;;;;;18.20;14.10;;;16.20;99.90;;;;;;5049792;28;20229;-83
2021/07/31 00:41:17;;;;;;;15.60;13.60;;;16.20;99.90;;;;;;5057810;28;20205;-81
2021/07/31 00:43:45;;;;;;;15.60;13.63;;;16.10;99.90;;;;;;5049651;28;20240;-82
2021/07/31 00:46:16;;;;;;;17.03;13.50;;;16.10;99.90;;;;;;5053841;28;20198;-82
2021/07/31 00:48:45;;;;;;;15.57;13.80;;;16.00;99.90;;;;;;5060852;28;20288;-82
2021/07/31 00:51:14;;;;;;;19.57;14.07;;;16.00;99.90;;;;;;5070836;28;20502;-83
2021/07/31 00:53:45;;;;;;;17.20;12.90;;;16.10;99.90;;;;;;5073605;28;20201;-83
2021/07/31 00:56:14;;;;;;;16.07;14.17;;;16.10;99.90;;;;;;5050638;28;20205;-82
2021/07/31 00:58:44;;;;;;;15.63;13.27;;;16.00;99.90;;;;;;5054713;28;20220;-83
2021/07/31 01:01:13;;;;;;;16.50;13.73;;;15.90;99.90;;;;;;5062860;28;20209;-82
2021/07/31 01:03:44;;;;;;;18.67;13.50;;;15.90;99.90;;;;;;5060122;28;20259;-82
2021/07/31 01:06:13;;;;;;;16.20;13.20;;;15.90;99.90;;;;;;5043836;28;20202;-83
2021/07/31 01:08:42;;;;;;;17.10;13.67;;;15.80;99.90;;;;;;5042670;28;20194;-84
2021/07/31 01:11:10;;;;;;;16.37;14.07;;;15.70;99.90;;;;;;5050357;28;20663;-83
2021/07/31 01:13:40;;;;;;;17.30;14.23;;;15.70;99.90;;;;;;5040869;28;20202;-80
2021/07/31 01:16:09;;;;;;;16.43;13.77;;;15.70;99.90;;;;;;5043936;28;20205;-85
2021/07/31 01:18:39;;;;;;;20.33;13.63;;;15.70;99.90;;;;;;5051341;28;20217;-84
2021/07/31 01:21:09;;;;;;;21.70;14.93;;;15.60;99.90;;;;;;5049588;28;20208;-87
2021/07/31 01:23:40;;;;;;;16.40;13.60;;;15.60;99.90;;;;;;5053421;28;20205;-85
2021/07/31 01:26:09;;;;;;;15.23;13.63;;;15.60;99.90;;;;;;5043070;28;20206;-83
2021/07/31 01:28:38;;;;;;;20.30;14.67;;;15.60;99.90;;;;;;5046910;28;20520;-83
2021/07/31 01:31:06;;;;;;;19.93;14.27;;;15.60;99.90;;;;;;5044363;28;20190;-83
2021/07/31 01:33:35;;;;;;;17.77;14.07;;;15.60;99.90;;;;;;5040519;28;20224;-83
2021/07/31 01:36:06;;;;;;;16.87;14.23;;;15.50;99.90;;;;;;5043643;28;20237;-84
2021/07/31 01:38:34;;;;;;;16.27;13.80;;;15.50;99.90;;;;;;5037542;28;20229;-81
2021/07/31 01:41:05;;;;;;;16.00;14.07;;;15.50;99.90;;;;;;5038775;28;20209;-83
2021/07/31 01:43:33;;;;;;;15.60;13.67;;;15.50;99.90;;;;;;5040535;28;20198;-81
2021/07/31 01:46:02;;;;;;;16.00;13.53;;;15.70;99.90;;;;;;5037387;28;20202;-82
2021/07/31 01:48:31;;;;;;;15.67;13.47;;;15.80;99.90;;;;;;5039129;28;20206;-82
2021/07/31 01:50:59;;;;;;;14.83;13.30;;;15.80;99.90;;;;;;5045912;28;20225;-81
2021/07/31 01:53:29;;;;;;;14.87;13.33;;;15.70;99.90;;;;;;5056800;28;20770;-82
2021/07/31 01:55:58;;;;;;;18.27;13.67;;;15.70;99.90;;;;;;5052427;28;20552;-82
2021/07/31 01:58:28;;;;;;;16.07;13.70;;;15.60;99.90;;;;;;5051489;28;20222;-82
2021/07/31 02:00:57;;;;;;;18.80;12.73;;;15.50;99.90;;;;;;5055929;28;20202;-81
2021/07/31 02:03:26;;;;;;;16.70;13.37;;;15.40;99.90;;;;;;5045797;28;20722;-82
2021/07/31 02:05:55;;;;;;;15.70;13.60;;;15.40;99.90;;;;;;5046679;28;20939;-80
2021/07/31 02:08:24;;;;;;;18.27;13.83;;;15.40;99.90;;;;;;5062924;28;20284;-81
2021/07/31 02:10:53;;;;;;;14.90;13.37;;;15.40;99.90;;;;;;5052859;28;20244;-83
2021/07/31 02:13:22;;;;;;;15.50;13.90;;;15.40;99.90;;;;;;5039450;28;20201;-82
2021/07/31 02:15:52;;;;;;;16.27;13.97;;;15.30;99.90;;;;;;5041289;28;20186;-81
2021/07/31 02:18:21;;;;;;;15.63;13.33;;;15.30;99.90;;;;;;5038915;28;20286;-83
2021/07/31 02:20:50;;;;;;;15.03;13.43;;;15.30;99.90;;;;;;5041778;28;20206;-82
2021/07/31 02:23:18;;;;;;;15.43;13.67;;;15.20;99.90;;;;;;5038948;28;20206;-84
2021/07/31 02:25:47;;;;;;;17.80;14.27;;;15.20;99.90;;;;;;5042989;28;20210;-84
2021/07/31 02:28:16;;;;;;;15.80;14.10;;;15.20;99.90;;;;;;5039103;28;20628;-81
2021/07/31 02:30:44;;;;;;;16.53;14.53;;;15.20;99.90;;;;;;5043826;28;20209;-83
2021/07/31 02:33:15;;;;;;;20.03;15.07;;;15.10;99.90;;;;;;5047227;28;20289;-81
2021/07/31 02:35:43;;;;;;;17.97;14.33;;;15.20;99.90;;;;;;5051485;28;20194;-81
2021/07/31 02:38:12;;;;;;;17.83;13.83;;;15.20;99.90;;;;;;5050355;28;20226;-82
2021/07/31 02:40:41;;;;;;;18.17;14.67;;;15.20;99.90;;;;;;5051087;28;20202;-82
2021/07/31 02:43:10;;;;;;;15.80;14.03;;;15.20;99.90;;;;;;5047377;28;20209;-83
2021/07/31 02:45:38;;;;;;;15.03;13.53;;;15.20;99.90;;;;;;5043511;28;20198;-81
2021/07/31 02:48:07;;;;;;;17.30;14.83;;;15.10;99.90;;;;;;5039536;28;20198;-83
2021/07/31 02:50:37;;;;;;;15.97;14.27;;;15.10;99.90;;;;;;5040708;28;20217;-84
2021/07/31 02:53:05;;;;;;;16.57;14.10;;;15.10;99.90;;;;;;5038356;28;20838;-83
2021/07/31 02:55:34;;;;;;;16.27;14.57;;;15.10;99.90;;;;;;5042311;28;20214;-80
2021/07/31 02:58:03;;;;;;;16.40;14.70;;;15.00;99.90;;;;;;5038605;28;20226;-85
2021/07/31 03:00:32;;;;;;;18.40;15.23;;;15.00;99.90;;;;;;5042826;28;20290;-82
2021/07/31 03:03:01;;;;;;;16.07;14.37;;;15.00;99.90;;;;;;5038775;28;20625;-83
2021/07/31 03:05:30;;;;;;;15.80;14.27;;;15.00;99.90;;;;;;5039419;28;20264;-83
2021/07/31 03:08:00;;;;;;;16.27;14.63;;;15.00;99.90;;;;;;5040797;28;20220;-83
2021/07/31 03:10:28;;;;;;;16.07;14.33;;;15.00;99.90;;;;;;5039974;28;21162;-81
2021/07/31 03:12:57;;;;;;;16.07;13.73;;;15.00;99.90;;;;;;5042925;28;20293;-84
2021/07/31 03:15:25;;;;;;;16.63;13.87;;;15.10;99.90;;;;;;5048597;28;20691;-81
2021/07/31 03:17:56;;;;;;;16.63;14.23;;;15.10;99.90;;;;;;5045898;28;20213;-82
2021/07/31 03:20:24;;;;;;;16.37;14.30;;;15.10;99.90;;;;;;5048932;28;20210;-80
2021/07/31 03:22:53;;;;;;;17.97;14.87;;;15.10;99.90;;;;;;5056309;28;20242;-80
2021/07/31 03:25:23;;;;;;;18.27;13.90;;;15.10;99.90;;;;;;5042199;28;20283;-81
2021/07/31 03:27:52;;;;;;;15.40;13.40;;;15.10;99.90;;;;;;5039248;28;20285;-83
2021/07/31 03:30:20;;;;;;;15.90;14.20;;;15.10;99.90;;;;;;5040451;28;20608;-83
2021/07/31 03:32:52;;;;;;;15.87;13.57;;;15.10;99.90;;;;;;5055288;28;20206;-82
2021/07/31 03:35:21;;;;;;;16.47;13.63;;;15.20;99.90;;;;;;5047185;28;20186;-81
2021/07/31 03:37:50;;;;;;;14.93;13.33;;;15.20;99.90;;;;;;5056828;28;20352;-81
2021/07/31 03:40:18;;;;;;;16.97;14.10;;;15.20;99.90;;;;;;5071965;28;20264;-83
2021/07/31 03:42:48;;;;;;;14.67;13.13;;;15.30;99.90;;;;;;5056883;28;20210;-81
2021/07/31 03:45:17;;;;;;;15.60;13.87;;;15.30;99.90;;;;;;5045557;28;20194;-81
2021/07/31 03:47:46;;;;;;;14.80;13.33;;;15.40;99.90;;;;;;5036939;28;20760;-80
2021/07/31 03:50:15;;;;;;;14.93;13.30;;;15.50;99.90;;;;;;5041640;28;20195;-82
2021/07/31 03:52:43;;;;;;;14.73;13.23;;;15.50;99.90;;;;;;5041373;28;20232;-82
2021/07/31 03:55:12;;;;;;;14.07;12.60;;;15.60;99.90;;;;;;5041245;28;20206;-79
2021/07/31 03:57:41;;;;;;;14.47;12.97;;;15.70;99.90;;;;;;5039578;28;20209;-82
2021/07/31 04:00:12;;;;;;;14.13;12.67;;;15.80;99.90;;;;;;5044272;28;20218;-82
2021/07/31 04:02:41;;;;;;;17.43;13.50;;;15.90;99.90;;;;;;5037440;28;20201;-81
2021/07/31 04:05:10;;;;;;;14.70;13.20;;;16.00;99.90;;;;;;5043756;28;20206;-81
2021/07/31 04:07:39;;;;;;;15.20;13.47;;;16.10;99.90;;;;;;5038430;28;20190;-82
2021/07/31 04:10:09;;;;;;;17.37;15.60;;;16.30;99.90;;;;;;5045485;28;20206;-82
2021/07/31 04:12:37;;;;;;;19.27;14.07;;;16.40;99.90;;;;;;5038099;28;20198;-82
2021/07/31 04:15:09;;;;;;;16.83;13.67;;;16.50;99.90;;;;;;5036264;28;20210;-83
2021/07/31 04:17:39;;;;;;;15.40;13.80;;;16.70;99.90;;;;;;5040168;28;20198;-83
2021/07/31 04:20:09;;;;;;;16.37;12.93;;;16.80;99.90;;;;;;5040692;28;20233;-82
2021/07/31 04:22:38;;;;;;;16.43;13.87;;;16.90;99.90;;;;;;5042549;28;20260;-81
2021/07/31 04:25:10;;;;;;;15.57;13.20;;;17.00;99.90;;;;;;5044257;28;20213;-81
2021/07/31 04:27:38;;;;;;;15.17;13.07;;;17.10;99.90;;;;;;5045432;28;20233;-83
2021/07/31 04:30:08;;;;;;;16.27;13.40;;;17.20;99.90;;;;;;5045016;28;20205;-82
2021/07/31 04:32:38;;;;;;;17.00;14.00;;;17.30;99.90;;;;;;5048967;28;20197;-81
2021/07/31 04:35:10;;;;;;;14.73;12.77;;;17.50;99.90;;;;;;5052112;28;20217;-81
2021/07/31 04:37:38;;;;;;;13.50;12.20;;;17.60;99.90;;;;;;5067256;28;20202;-81
2021/07/31 04:40:09;;;;;;;15.00;12.23;;;17.70;99.60;;;;;;5068395;28;20288;-78
2021/07/31 04:42:38;;;;;;;13.83;12.40;;;17.70;99.30;;;;;;5069724;28;20198;-81
2021/07/31 04:45:08;;;;;;;13.23;11.83;;;17.80;98.70;;;;;;5060188;28;20202;-82
2021/07/31 04:47:39;;;;;;;12.63;11.33;;;17.70;98.20;;;;;;5076356;28;20194;-80
2021/07/31 04:50:13;;;;;;;14.00;12.27;;;17.80;98.30;;;;;;5078149;28;20208;-81
2021/07/31 04:52:43;;;;;;;13.60;12.17;;;17.90;98.00;;;;;;5075549;28;20174;-82
2021/07/31 04:55:12;;;;;;;16.07;13.33;;;17.90;97.10;;;;;;5074212;28;20186;-81
2021/07/31 04:57:41;;;;;;;19.90;16.53;;;18.00;97.50;;;;;;5078895;28;20198;-82
2021/07/31 05:00:11;;;;;;;28.33;22.43;;;18.00;97.50;;;;;;5071648;28;20217;-83
2021/07/31 05:02:41;;;;;;;45.43;32.37;;;18.00;97.80;;;;;;5078447;28;20180;-83
2021/07/31 05:05:11;;;;;;;48.67;32.90;;;18.10;98.80;;;;;;5083559;28;20177;-83
2021/07/31 05:07:39;;;;;;;44.87;31.87;;;18.10;98.60;;;;;;5074452;28;20243;-83
2021/07/31 05:10:09;;;;;;;46.70;30.50;;;18.20;98.40;;;;;;5082696;28;20181;-80
2021/07/31 05:12:38;;;;;;;32.90;26.47;;;18.40;98.10;;;;;;5070140;28;20220;-84
2021/07/31 05:15:11;;;;;;;24.30;19.17;;;18.60;97.50;;;;;;5080886;28;20193;-81
2021/07/31 05:17:41;;;;;;;24.27;18.03;;;18.80;95.70;;;;;;5078209;28;20190;-83
2021/07/31 05:20:11;;;;;;;26.43;19.07;;;19.00;94.80;;;;;;5075032;28;20260;-81
2021/07/31 05:22:40;;;;;;;20.90;18.00;;;19.20;93.90;;;;;;5074517;28;20198;-83
2021/07/31 05:25:10;;;;;;;22.40;16.67;;;19.50;93.30;;;;;;5076598;28;20673;-83
2021/07/31 05:27:38;;;;;;;19.33;14.23;;;19.70;93.20;;;;;;5085663;28;20182;-82
2021/07/31 05:30:08;;;;;;;16.43;13.63;;;19.90;92.30;;;;;;5073535;28;20232;-83
2021/07/31 05:32:37;;;;;;;15.90;13.53;;;20.10;92.50;;;;;;5057777;28;20209;-80
2021/07/31 05:35:09;;;;;;;15.33;13.10;;;20.30;92.20;;;;;;5058271;28;20205;-83
2021/07/31 05:37:38;;;;;;;16.73;14.17;;;20.40;92.00;;;;;;5051282;28;20209;-82
2021/07/31 05:40:07;;;;;;;18.87;14.63;;;20.60;91.70;;;;;;5063837;28;20287;-82
2021/07/31 05:42:36;;;;;;;17.07;13.37;;;20.70;91.80;;;;;;5059717;28;20214;-85
2021/07/31 05:45:06;;;;;;;18.57;13.27;;;20.80;92.00;;;;;;5056412;28;20229;-82
2021/07/31 05:47:35;;;;;;;13.77;10.90;;;20.90;91.30;;;;;;5048497;28;20210;-86
2021/07/31 05:50:09;;;;;;;15.90;11.93;;;21.00;90.60;;;;;;5048752;28;20201;-85
2021/07/31 05:52:38;;;;;;;16.13;12.37;;;21.20;90.70;;;;;;5054502;28;20198;-81
2021/07/31 05:55:08;;;;;;;12.80;11.37;;;21.30;90.20;;;;;;5053758;28;20213;-83
2021/07/31 05:57:37;;;;;;;12.30;8.97;;;21.50;90.10;;;;;;5052863;28;20201;-82
2021/07/31 06:00:07;;;;;;;8.20;7.40;;;21.70;89.70;;;;;;5057163;28;20234;-81
2021/07/31 06:02:36;;;;;;;8.23;7.53;;;21.90;88.20;;;;;;5061780;28;20205;-81
2021/07/31 06:05:08;;;;;;;8.43;7.50;;;22.10;86.30;;;;;;5051646;28;20233;-83
2021/07/31 06:07:37;;;;;;;9.87;7.23;;;22.30;86.00;;;;;;5048054;28;20205;-85
2021/07/31 06:10:07;;;;;;;7.97;6.72;;;22.30;84.90;;;;;;5060452;28;20994;-82
2021/07/31 06:12:36;;;;;;;8.32;7.32;;;22.30;85.30;;;;;;5056419;28;20493;-83
2021/07/31 06:15:05;;;;;;;7.63;6.93;;;22.40;85.50;;;;;;5065657;28;20283;-84
2021/07/31 06:17:34;;;;;;;8.25;7.07;;;22.50;85.40;;;;;;5064113;28;20193;-83
2021/07/31 06:20:04;;;;;;;8.52;6.78;;;22.50;85.40;;;;;;5046152;28;20251;-82
2021/07/31 06:22:34;;;;;;;7.00;6.38;;;22.50;85.30;;;;;;5062039;28;20214;-83
2021/07/31 06:25:03;;;;;;;7.18;6.45;;;22.50;85.20;;;;;;5058024;28;20206;-83
2021/07/31 06:27:32;;;;;;;7.75;6.90;;;22.70;85.30;;;;;;5076516;28;20266;-82
2021/07/31 06:30:01;;;;;;;7.97;6.45;;;22.90;84.50;;;;;;5077750;28;20243;-85
2021/07/31 06:32:30;;;;;;;9.05;6.28;;;22.90;84.40;;;;;;5053472;28;20218;-82
2021/07/31 06:34:58;;;;;;;9.23;6.45;;;23.10;84.30;;;;;;5048964;28;20206;-82
2021/07/31 06:37:27;;;;;;;8.30;6.20;;;23.20;84.50;;;;;;5033462;28;20231;-84
2021/07/31 06:39:57;;;;;;;7.18;6.07;;;23.30;84.20;;;;;;5048421;28;20225;-84
2021/07/31 06:42:27;;;;;;;6.93;6.22;;;23.50;83.70;;;;;;5048261;28;20201;-82
2021/07/31 06:44:56;;;;;;;6.78;6.03;;;23.70;83.40;;;;;;5056601;28;20208;-85
2021/07/31 06:47:24;;;;;;;7.50;5.80;;;23.80;83.30;;;;;;5054737;28;20209;-84
2021/07/31 06:49:53;;;;;;;6.75;6.05;;;23.80;83.10;;;;;;5057093;28;20205;-83
2021/07/31 06:52:22;;;;;;;9.43;5.80;;;23.70;83.20;;;;;;5063512;28;20216;-82
2021/07/31 06:54:51;;;;;;;6.20;5.55;;;23.70;83.00;;;;;;5058314;28;20791;-84
2021/07/31 06:57:21;;;;;;;7.70;5.47;;;23.70;83.20;;;;;;5049631;28;20195;-81
2021/07/31 06:59:51;;;;;;;8.13;5.82;;;23.80;82.90;;;;;;5055305;28;20200;-84
2021/07/31 07:02:21;;;;;;;6.15;5.40;;;23.90;82.80;;;;;;5044034;28;21507;-81
2021/07/31 07:04:50;;;;;;;7.20;5.97;;;24.00;82.80;;;;;;5044527;28;20217;-84
2021/07/31 07:07:19;;;;;;;7.70;5.32;;;24.20;82.50;;;;;;5045537;28;20196;-84
2021/07/31 07:09:48;;;;;;;5.75;5.03;;;24.50;82.20;;;;;;5042540;28;20202;-81
2021/07/31 07:12:17;;;;;;;6.65;4.85;;;24.70;82.00;;;;;;5042007;28;20201;-83
2021/07/31 07:14:47;;;;;;;8.05;5.32;;;25.00;81.70;;;;;;5039946;28;20217;-82
2021/07/31 07:17:16;;;;;;;9.40;5.47;;;25.20;81.30;;;;;;5040105;28;20205;-82
2021/07/31 07:19:44;;;;;;;7.57;5.40;;;25.20;81.10;;;;;;5041015;28;20205;-82
2021/07/31 07:22:13;;;;;;;6.03;5.47;;;25.20;80.40;;;;;;5045145;28;20226;-82
2021/07/31 07:24:42;;;;;;;6.65;5.07;;;25.20;80.50;;;;;;5046898;28;20201;-84
2021/07/31 07:27:10;;;;;;;7.40;5.13;;;25.20;80.20;;;;;;5056137;28;20208;-83
2021/07/31 07:29:39;;;;;;;7.50;5.50;;;25.20;80.20;;;;;;5055192;28;20658;-83
2021/07/31 07:32:10;;;;;;;7.28;5.40;;;25.20;80.00;;;;;;5056790;28;20205;-82
2021/07/31 07:34:40;;;;;;;7.15;5.93;;;25.30;80.50;;;;;;5052365;28;20279;-84
2021/07/31 07:37:08;;;;;;;6.57;5.97;;;25.40;80.70;;;;;;5060672;28;20919;-83
2021/07/31 07:39:37;;;;;;;8.52;6.30;;;25.10;80.50;;;;;;5055974;28;20932;-81
2021/07/31 07:42:06;;;;;;;6.03;5.43;;;25.00;80.90;;;;;;5059159;28;20222;-81
2021/07/31 07:44:35;;;;;;;9.80;5.75;;;25.00;80.90;;;;;;5052719;28;20618;-81
2021/07/31 07:47:04;;;;;;;6.88;5.95;;;25.00;81.10;;;;;;5050218;28;20212;-79
2021/07/31 07:49:35;;;;;;;7.13;6.43;;;25.00;81.60;;;;;;5044473;28;20214;-81
2021/07/31 07:52:04;;;;;;;6.63;5.68;;;24.90;81.40;;;;;;5050263;28;20198;-85
2021/07/31 07:54:33;;;;;;;7.03;5.88;;;24.90;81.20;;;;;;5055559;28;20201;-83
2021/07/31 07:57:06;;;;;;;7.70;6.00;;;24.90;81.50;;;;;;5033828;28;20222;-83
2021/07/31 07:59:35;;;;;;;9.75;5.93;;;24.80;81.50;;;;;;5057090;28;20210;-81
2021/07/31 08:02:05;;;;;;;7.55;5.75;;;24.80;81.50;;;;;;5043542;28;20786;-84
2021/07/31 08:04:35;;;;;;;7.03;5.97;;;24.90;81.70;;;;;;5044460;28;20297;-84
2021/07/31 08:07:05;;;;;;;6.45;5.82;;;25.00;81.50;;;;;;5041741;28;20209;-82
2021/07/31 08:09:37;;;;;;;6.28;5.68;;;25.20;81.30;;;;;;5053139;28;20201;-83
2021/07/31 08:12:06;;;;;;;6.57;5.40;;;25.40;81.30;;;;;;5048045;28;20952;-82
2021/07/31 08:14:36;;;;;;;6.35;5.57;;;25.50;81.20;;;;;;5050931;28;20547;-83
2021/07/31 08:17:05;;;;;;;8.77;5.93;;;25.80;81.40;;;;;;5041054;28;20793;-81
2021/07/31 08:19:35;;;;;;;7.47;5.82;;;26.20;81.50;;;;;;5039213;28;20201;-84
2021/07/31 08:22:04;;;;;;;7.30;5.93;;;26.30;80.40;;;;;;5056908;28;20656;-85
2021/07/31 08:24:33;;;;;;;6.05;5.50;;;26.60;79.60;;;;;;5043663;28;20941;-82
2021/07/31 08:27:03;;;;;;;7.20;5.95;;;26.70;79.60;;;;;;5047653;28;20212;-84
2021/07/31 08:29:31;;;;;;;7.85;5.70;;;26.80;78.80;;;;;;5043704;28;20976;-82
2021/07/31 08:32:00;;;;;;;8.00;5.20;;;26.80;78.70;;;;;;5042387;28;20206;-82
2021/07/31 08:34:29;;;;;;;10.07;5.20;;;26.70;78.30;;;;;;5042603;28;20252;-84
2021/07/31 08:37:03;;;;;;;6.10;5.22;;;26.70;78.50;;;;;;5046172;28;20210;-82
2021/07/31 08:39:32;;;;;;;6.93;5.40;;;26.70;78.70;;;;;;5032557;28;20287;-83
2021/07/31 08:42:03;;;;;;;8.15;5.45;;;26.70;78.20;;;;;;5041766;28;20221;-82
2021/07/31 08:44:34;;;;;;;6.75;4.72;;;26.70;77.70;;;;;;5038675;28;20240;-84
2021/07/31 08:47:04;;;;;;;4.97;4.57;;;26.70;77.80;;;;;;5035248;28;20190;-82
2021/07/31 08:49:35;;;;;;;7.50;5.45;;;26.70;78.10;;;;;;5038912;28;20651;-82
2021/07/31 08:52:08;;;;;;;5.63;5.13;;;26.70;77.60;;;;;;5042500;28;20198;-82
2021/07/31 08:54:40;;;;;;;5.78;5.07;;;26.60;78.10;;;;;;5048366;28;20202;-81
2021/07/31 08:57:11;;;;;;;5.68;4.88;;;26.60;78.10;;;;;;5046910;28;20206;-83
2021/07/31 08:59:40;;;;;;;6.00;4.95;;;26.50;77.80;;;;;;5049028;28;20199;-82
2021/07/31 09:02:08;;;;;;;6.10;4.88;;;26.40;78.00;;;;;;5043230;28;20833;-83
2021/07/31 09:04:44;;;;;;;5.85;4.97;;;26.40;78.30;;;;;;5056000;28;20385;-82
2021/07/31 09:07:15;;;;;;;7.20;5.20;;;26.30;78.30;;;;;;5050157;28;20248;-82
2021/07/31 09:09:46;;;;;;;5.55;5.00;;;26.40;78.40;;;;;;5055941;28;20265;-82
2021/07/31 09:12:20;;;;;;;7.93;5.43;;;26.60;78.60;;;;;;5046784;28;20228;-83
2021/07/31 09:14:49;;;;;;;5.50;5.00;;;26.70;77.70;;;;;;5043555;28;20198;-84
2021/07/31 09:17:26;;;;;;;5.47;4.85;;;26.90;77.30;;;;;;5062264;28;20182;-84
2021/07/31 09:19:59;;;;;;;7.25;4.93;;;27.10;76.10;;;;;;5047104;28;20193;-85
2021/07/31 09:22:29;;;;;;;7.03;4.68;;;27.20;76.40;;;;;;5025210;28;20230;-84
2021/07/31 09:25:16;;;;;;;9.70;5.18;;;27.20;77.40;;;;;;5044293;28;20224;-83
2021/07/31 09:27:46;;;;;;;7.85;5.28;;;27.30;77.70;;;;;;5042325;28;20198;-83
2021/07/31 09:30:14;;;;;;;7.28;5.40;;;27.10;76.90;;;;;;5041127;28;20656;-83
2021/07/31 09:32:44;;;;;;;6.85;5.53;;;26.90;76.70;;;;;;5036352;28;20212;-82
2021/07/31 09:35:23;;;;;;;6.22;5.72;;;26.80;76.70;;;;;;5034655;28;20255;-85
2021/07/31 09:37:55;;;;;;;6.93;6.10;;;26.80;76.00;;;;;;5043408;28;20229;-84
2021/07/31 09:40:31;;;;;;;7.18;6.10;;;26.80;75.70;;;;;;5039517;28;20251;-83
2021/07/31 09:43:13;;;;;;;6.63;5.85;;;26.80;76.20;;;;;;5040582;28;20931;-84
2021/07/31 09:45:43;;;;;;;6.38;5.78;;;26.80;76.20;;;;;;5050120;28;20201;-84
2021/07/31 09:48:12;;;;;;;8.23;6.00;;;27.00;76.50;;;;;;5045183;28;20284;-83
2021/07/31 09:50:43;;;;;;;8.38;6.40;;;27.20;76.60;;;;;;5040660;28;20622;-83
2021/07/31 09:53:15;;;;;;;7.03;6.10;;;27.40;76.40;;;;;;5047488;28;20691;-83
2021/07/31 09:55:46;;;;;;;8.45;6.07;;;27.80;76.40;;;;;;5038817;28;20190;-83
2021/07/31 09:58:17;;;;;;;6.28;5.68;;;27.90;76.70;;;;;;5044294;28;20232;-83
2021/07/31 10:00:47;;;;;;;8.07;5.82;;;28.00;76.20;;;;;;5043638;28;20221;-81
2021/07/31 10:03:16;;;;;;;8.57;6.72;;;28.10;75.30;;;;;;5053107;28;20740;-83
2021/07/31 10:05:46;;;;;;;6.90;6.30;;;28.20;75.10;;;;;;5044053;28;20206;-81
2021/07/31 10:08:36;;;;;;;7.18;5.97;;;28.20;75.50;;;;;;5058038;28;21442;-81
2021/07/31 10:11:05;;;;;;;8.13;7.32;;;28.20;75.30;;;;;;5054496;28;20202;-84
2021/07/31 10:13:37;;;;;;;7.63;5.82;;;28.30;76.00;;;;;;5043058;28;20204;-83
2021/07/31 10:16:06;;;;;;;6.47;5.88;;;28.30;75.30;;;;;;5060958;28;20367;-82
2021/07/31 10:18:34;;;;;;;7.43;5.93;;;28.40;74.80;;;;;;5037188;28;20658;-84
2021/07/31 10:21:09;;;;;;;6.40;5.80;;;28.60;74.10;;;;;;5053381;28;20541;-84
2021/07/31 10:23:59;;;;;;;7.43;5.97;;;28.60;73.20;;;;;;5040303;28;20228;-83
2021/07/31 10:26:29;;;;;;;6.90;6.25;;;28.60;73.50;;;;;;5048889;28;20221;-84
2021/07/31 10:29:36;;;;;;;7.50;6.10;;;28.80;74.30;;;;;;5048313;28;20457;-83
2021/07/31 10:32:35;;;;;;;7.88;6.28;;;28.70;74.20;;;;;;5044776;28;20434;-82
2021/07/31 10:35:05;;;;;;;8.68;6.25;;;29.00;74.00;;;;;;5050791;28;20353;-86
2021/07/31 10:37:46;;;;;;;7.45;6.18;;;29.00;73.50;;;;;;5045431;28;20276;-82
2021/07/31 10:40:57;;;;;;;7.00;6.13;;;29.10;73.40;;;;;;5051984;28;20205;-83
2021/07/31 10:43:30;;;;;;;7.32;6.10;;;29.00;72.10;;;;;;5054350;28;20232;-81
2021/07/31 10:46:19;;;;;;;10.25;5.90;;;29.10;72.90;;;;;;5048065;28;20260;-81
2021/07/31 10:48:48;;;;;;;7.30;5.90;;;29.10;72.90;;;;;;5040777;28;20255;-87
2021/07/31 10:51:43;;;;;;;7.35;6.57;;;28.90;72.60;;;;;;5043257;28;20206;-81
2021/07/31 10:54:12;;;;;;;7.97;6.43;;;28.60;72.80;;;;;;5051600;28;20959;-83
2021/07/31 10:56:55;;;;;;;8.82;5.93;;;28.60;73.40;;;;;;5047964;28;20975;-83
2021/07/31 10:59:25;;;;;;;6.63;6.03;;;28.60;72.80;;;;;;5044797;28;20201;-80
2021/07/31 11:02:31;;;;;;;6.68;6.07;;;28.70;72.90;;;;;;5041105;28;20431;-84
2021/07/31 11:05:01;;;;;;;8.30;6.28;;;28.90;73.40;;;;;;5042705;28;20206;-83
2021/07/31 11:07:30;;;;;;;6.43;5.70;;;29.10;73.30;;;;;;5045373;28;20731;-82
2021/07/31 11:10:31;;;;;;;9.25;6.40;;;29.10;73.20;;;;;;5047227;28;20243;-83
2021/07/31 11:13:00;;;;;;;7.25;6.35;;;29.10;73.20;;;;;;5044202;28;20233;-81
2021/07/31 11:15:30;;;;;;;8.27;6.05;;;29.00;72.60;;;;;;5043779;28;20263;-83
2021/07/31 11:18:01;;;;;;;7.07;6.40;;;28.70;73.00;;;;;;5044403;28;20900;-83
2021/07/31 11:20:32;;;;;;;7.90;6.10;;;28.60;73.20;;;;;;5046067;28;20206;-85
2021/07/31 11:23:09;;;;;;;6.78;6.28;;;28.60;72.60;;;;;;5042760;28;20285;-82
2021/07/31 11:25:43;;;;;;;7.60;6.47;;;28.60;72.30;;;;;;5048257;28;20193;-84
2021/07/31 11:28:12;;;;;;;7.82;6.50;;;28.60;72.50;;;;;;5062218;28;20208;-83
2021/07/31 11:30:45;;;;;;;9.43;7.00;;;28.60;72.70;;;;;;5050234;28;20684;-82
2021/07/31 11:33:25;;;;;;;7.53;6.63;;;28.50;73.10;;;;;;5046119;28;20198;-84
2021/07/31 11:35:56;;;;;;;7.97;6.78;;;28.50;73.30;;;;;;5053539;28;20200;-85
2021/07/31 11:38:35;;;;;;;8.05;6.70;;;28.50;73.10;;;;;;5040339;28;22082;-82
2021/07/31 11:41:09;;;;;;;6.90;6.30;;;28.40;73.40;;;;;;5038152;28;20706;-82
2021/07/31 11:43:47;;;;;;;6.68;6.07;;;28.30;73.60;;;;;;5040269;28;20226;-82
2021/07/31 11:46:32;;;;;;;6.45;5.95;;;28.20;73.60;;;;;;5038501;28;20201;-84
2021/07/31 11:49:02;;;;;;;7.05;6.30;;;28.10;73.90;;;;;;5040682;28;20213;-84
2021/07/31 11:51:42;;;;;;;7.72;5.95;;;27.90;73.90;;;;;;5045131;28;20202;-82
2021/07/31 11:54:11;;;;;;;7.30;6.60;;;27.70;74.20;;;;;;5050827;28;20208;-85
2021/07/31 11:56:42;;;;;;;7.10;6.40;;;27.60;74.10;;;;;;5025365;28;20218;-82
2021/07/31 11:59:11;;;;;;;7.45;6.75;;;27.50;74.20;;;;;;5038510;28;20241;-82
2021/07/31 12:01:48;;;;;;;6.35;5.85;;;27.40;74.30;;;;;;5037699;28;20221;-82
2021/07/31 12:04:37;;;;;;;8.07;6.30;;;27.30;74.80;;;;;;5034576;28;20885;-80
2021/07/31 12:07:09;;;;;;;7.97;7.18;;;27.30;75.10;;;;;;5032696;28;20296;-84
2021/07/31 12:09:38;;;;;;;7.90;7.20;;;27.30;75.20;;;;;;5038393;28;20290;-81
2021/07/31 12:12:23;;;;;;;7.90;7.20;;;27.50;75.50;;;;;;5035592;28;20293;-84
2021/07/31 12:15:17;;;;;;;9.95;7.57;;;27.60;75.20;;;;;;5045422;28;20202;-83
2021/07/31 12:20:43;;;;;;;9.23;7.57;;;27.80;75.50;;;;;;5092473;27;20587;-82
2021/07/31 12:23:13;;;;;;;8.43;7.63;;;28.10;75.50;;;;;;5095171;28;21010;-82
2021/07/31 12:25:57;;;;;;;8.77;7.90;;;28.20;75.70;;;;;;5098354;28;20413;-84
2021/07/31 12:28:37;;;;;;;8.57;7.72;;;28.20;75.60;;;;;;5091864;28;20264;-83
2021/07/31 12:31:22;;;;;;;11.20;7.90;;;28.20;75.40;;;;;;5099302;28;20203;-82
2021/07/31 12:33:51;;;;;;;9.55;7.72;;;28.20;75.60;;;;;;5104912;28;20215;-84
2021/07/31 12:36:22;;;;;;;10.40;7.93;;;28.20;75.60;;;;;;5106089;28;20196;-84
2021/07/31 12:38:54;;;;;;;9.88;7.43;;;28.20;75.90;;;;;;5118654;28;20231;-83
2021/07/31 12:41:24;;;;;;;9.43;7.95;;;28.20;75.80;;;;;;5113731;28;20256;-82
2021/07/31 12:43:53;;;;;;;9.07;7.82;;;28.20;76.30;;;;;;5107336;28;20204;-81
2021/07/31 12:46:22;;;;;;;8.82;7.72;;;28.40;76.20;;;;;;5105257;28;20449;-82
2021/07/31 12:48:51;;;;;;;9.65;8.10;;;28.20;76.10;;;;;;5098732;28;20208;-83
2021/07/31 12:51:21;;;;;;;9.00;8.27;;;28.30;76.30;;;;;;5092384;28;20201;-85
2021/07/31 12:53:50;;;;;;;10.38;8.32;;;28.40;75.90;;;;;;5094303;28;20192;-82
2021/07/31 12:56:19;;;;;;;10.80;8.00;;;28.30;75.80;;;;;;5093055;28;20196;-84
2021/07/31 12:58:48;;;;;;;11.55;9.02;;;28.30;75.90;;;;;;5092460;28;20207;-82
2021/07/31 13:01:17;;;;;;;9.13;8.10;;;28.20;75.80;;;;;;5097900;28;20200;-81